createdAt,value
2023-03-12T00:00:51.228Z,148703.69
2023-03-12T00:03:17.534Z,148772.72
2023-03-12T00:05:44.313Z,148751.34
2023-03-12T00:08:10.796Z,148740.09
2023-03-12T00:10:39.076Z,148747.59
2023-03-12T00:13:04.985Z,148735.09
2023-03-12T00:15:30.898Z,148775.25
2023-03-12T00:17:56.718Z,148748.84
2023-03-12T00:20:22.764Z,148766.44
2023-03-12T00:22:49.961Z,148755.16
2023-03-12T00:25:16.162Z,148743.84
2023-03-12T00:27:42.699Z,148735.09
2023-03-12T00:30:10.056Z,148727.53
2023-03-12T00:32:37.081Z,148746.34
2023-03-12T00:35:05.268Z,148784.00
2023-03-12T00:37:32.689Z,148747.59
2023-03-12T00:40:00.961Z,148746.34
2023-03-12T00:42:27.396Z,148758.91
2023-03-12T00:44:53.218Z,148774.00
2023-03-12T00:47:19.156Z,148736.34
2023-03-12T00:49:45.048Z,148746.34
2023-03-12T00:52:11.198Z,148747.59
2023-03-12T00:54:37.016Z,148714.97
2023-03-12T00:57:03.200Z,148722.50
2023-03-12T00:59:29.066Z,148730.03
2023-03-12T01:01:56.572Z,148742.59
2023-03-12T01:04:22.875Z,148741.34
2023-03-12T01:06:57.572Z,148765.19
2023-03-12T01:09:23.426Z,148742.59
2023-03-12T01:11:49.251Z,148723.78
2023-03-12T01:14:15.057Z,148791.56
2023-03-12T01:16:40.928Z,148756.41
2023-03-12T01:19:07.162Z,148761.41
2023-03-12T01:21:37.323Z,148785.25
2023-03-12T01:24:03.361Z,148750.09
2023-03-12T01:26:29.232Z,148733.84
2023-03-12T01:28:55.147Z,148780.25
2023-03-12T01:31:21.356Z,148745.09
2023-03-12T01:33:51.949Z,148766.44
2023-03-12T01:36:21.666Z,148748.84
2023-03-12T01:38:50.372Z,148758.91
2023-03-12T01:41:16.207Z,148765.19
2023-03-12T01:43:42.603Z,148785.25
2023-03-12T01:46:23.440Z,148781.50
2023-03-12T01:49:09.512Z,148767.69
2023-03-12T01:51:44.622Z,148772.72
2023-03-12T01:54:19.702Z,148738.84
2023-03-12T01:56:46.857Z,148776.50
2023-03-12T01:59:22.389Z,148787.81
2023-03-12T02:04:19.065Z,148810.41
2023-03-12T02:06:51.243Z,148810.41
2023-03-12T02:09:19.573Z,148806.63
2023-03-12T02:11:45.535Z,148827.97
2023-03-12T02:14:11.310Z,148796.56
2023-03-12T02:16:37.197Z,148839.25
2023-03-12T02:19:07.941Z,148864.38
2023-03-12T02:21:35.083Z,148840.50
2023-03-12T02:24:27.474Z,148838.00
2023-03-12T02:26:53.444Z,148811.66
2023-03-12T02:29:19.501Z,148875.66
2023-03-12T02:31:51.247Z,148846.81
2023-03-12T02:34:17.334Z,148848.06
2023-03-12T02:36:43.217Z,148829.22
2023-03-12T02:39:11.838Z,148835.50
2023-03-12T02:41:45.401Z,148829.22
2023-03-12T02:44:18.518Z,148859.38
2023-03-12T02:46:48.258Z,148875.66
2023-03-12T02:49:15.300Z,148832.97
2023-03-12T02:51:42.411Z,148827.97
2023-03-12T02:54:09.171Z,148841.78
2023-03-12T02:56:35.528Z,148806.63
2023-03-12T02:59:04.266Z,148800.31
2023-03-12T03:01:33.278Z,148829.22
2023-03-12T03:04:00.781Z,148809.13
2023-03-12T03:06:27.087Z,148792.81
2023-03-12T03:08:52.931Z,148792.81
2023-03-12T03:11:23.504Z,148780.25
2023-03-12T03:13:53.129Z,148792.81
2023-03-12T03:16:25.850Z,148805.38
2023-03-12T03:18:53.170Z,148831.72
2023-03-12T03:21:19.756Z,148807.88
2023-03-12T03:23:50.244Z,148825.47
2023-03-12T03:26:19.474Z,148812.91
2023-03-12T03:28:45.408Z,148772.72
2023-03-12T03:31:11.860Z,148777.75
2023-03-12T03:33:42.254Z,148801.59
2023-03-12T03:36:09.884Z,148790.31
2023-03-12T03:38:36.223Z,148801.59
2023-03-12T03:41:02.575Z,148821.66
2023-03-12T03:43:28.522Z,148825.47
2023-03-12T03:46:05.419Z,148792.81
2023-03-12T03:48:31.623Z,148766.44
2023-03-12T03:51:04.856Z,148785.25
2023-03-12T03:53:31.363Z,148786.50
2023-03-12T03:55:58.091Z,148779.00
2023-03-12T03:58:24.038Z,148767.69
2023-03-12T04:00:49.939Z,148814.16
2023-03-12T04:03:15.781Z,148765.19
2023-03-12T04:05:44.534Z,148789.06
2023-03-12T04:08:12.108Z,148800.31
2023-03-12T04:10:38.054Z,148805.38
2023-03-12T04:13:03.917Z,148812.91
2023-03-12T04:15:29.786Z,148825.47
2023-03-12T04:17:55.657Z,148826.72
2023-03-12T04:20:21.530Z,148829.22
2023-03-12T04:22:47.326Z,148825.47
2023-03-12T04:25:13.570Z,148825.47
2023-03-12T04:27:39.403Z,148832.97
2023-03-12T04:30:05.850Z,148854.31
2023-03-12T04:32:31.687Z,148834.22
2023-03-12T04:34:57.556Z,148829.22
2023-03-12T04:37:23.450Z,148821.66
2023-03-12T04:39:49.263Z,148826.72
2023-03-12T04:42:15.080Z,148797.81
2023-03-12T04:44:41.072Z,148805.38
2023-03-12T04:47:06.970Z,148779.00
2023-03-12T04:49:32.828Z,148800.31
2023-03-12T04:51:58.658Z,148791.56
2023-03-12T04:54:24.514Z,148765.19
2023-03-12T04:56:50.431Z,148785.25
2023-03-12T04:59:16.524Z,148772.72
2023-03-12T05:01:43.111Z,148766.44
2023-03-12T05:04:09.132Z,148763.94
2023-03-12T05:06:35.098Z,148771.47
2023-03-12T05:09:01.091Z,148723.78
2023-03-12T05:11:26.931Z,148709.94
2023-03-12T05:13:52.934Z,148723.78
2023-03-12T05:16:18.842Z,148752.66
2023-03-12T05:18:46.553Z,148694.88
2023-03-12T05:21:17.607Z,148761.41
2023-03-12T05:23:44.160Z,148758.91
2023-03-12T05:26:28.536Z,148742.59
2023-03-12T05:28:54.437Z,148718.75
2023-03-12T05:31:20.948Z,148737.59
2023-03-12T05:33:47.358Z,148699.94
2023-03-12T05:36:14.720Z,148697.38
2023-03-12T05:38:41.950Z,148727.53
2023-03-12T05:41:16.214Z,148730.03
2023-03-12T05:43:42.084Z,148741.34
2023-03-12T05:46:09.481Z,148740.09
2023-03-12T05:48:35.396Z,148728.78
2023-03-12T05:51:01.287Z,148725.03
2023-03-12T05:53:27.167Z,148731.28
2023-03-12T05:55:52.992Z,148720.00
2023-03-12T05:58:18.965Z,148725.03
2023-03-12T06:00:45.110Z,148742.59
2023-03-12T06:03:11.652Z,148746.34
2023-03-12T06:05:38.164Z,148730.03
2023-03-12T06:08:05.190Z,148726.28
2023-03-12T06:10:31.352Z,148731.28
2023-03-12T06:12:57.619Z,148709.94
2023-03-12T06:15:23.601Z,148741.34
2023-03-12T06:17:49.514Z,148760.16
2023-03-12T06:20:15.482Z,148717.50
2023-03-12T06:22:41.431Z,148721.28
2023-03-12T06:25:07.649Z,148717.50
2023-03-12T06:27:33.535Z,148716.25
2023-03-12T06:29:59.408Z,148738.84
2023-03-12T06:32:25.421Z,148720.00
2023-03-12T06:34:51.227Z,148716.25
2023-03-12T06:37:17.102Z,148723.78
2023-03-12T06:39:42.901Z,148745.09
2023-03-12T06:42:08.832Z,148730.03
2023-03-12T06:44:34.606Z,148727.53
2023-03-12T06:47:00.544Z,148697.38
2023-03-12T06:49:31.295Z,148697.38
2023-03-12T06:51:57.088Z,148726.28
2023-03-12T06:54:22.974Z,148717.50
2023-03-12T06:56:48.888Z,148725.03
2023-03-12T06:59:14.681Z,148732.53
2023-03-12T07:01:40.585Z,148792.81
2023-03-12T07:04:06.485Z,148787.81
2023-03-12T07:06:32.389Z,148740.09
2023-03-12T07:08:58.308Z,148760.16
2023-03-12T07:11:24.175Z,148746.34
2023-03-12T07:13:50.884Z,148750.09
2023-03-12T07:16:16.857Z,148726.28
2023-03-12T07:18:42.790Z,148741.34
2023-03-12T07:21:08.668Z,148716.25
2023-03-12T07:23:34.567Z,148720.00
2023-03-12T07:26:00.409Z,148731.28
2023-03-12T07:28:26.164Z,148766.44
2023-03-12T07:30:52.132Z,148776.50
2023-03-12T07:33:20.276Z,148760.16
2023-03-12T07:35:50.090Z,148747.59
2023-03-12T07:38:17.263Z,148730.03
2023-03-12T07:40:43.154Z,148703.69
2023-03-12T07:43:11.931Z,148706.19
2023-03-12T07:45:38.825Z,148722.50
2023-03-12T07:48:06.148Z,148712.44
2023-03-12T07:50:32.421Z,148704.94
2023-03-12T07:52:58.243Z,148698.69
2023-03-12T07:55:24.090Z,148688.63
2023-03-12T07:57:50.029Z,148684.88
2023-03-12T08:00:16.453Z,148709.94
2023-03-12T08:02:42.537Z,148687.38
2023-03-12T08:05:09.036Z,148698.69
2023-03-12T08:07:35.619Z,148702.44
2023-03-12T08:10:04.906Z,148711.19
2023-03-12T08:12:30.899Z,148712.44
2023-03-12T08:14:56.910Z,148713.72
2023-03-12T08:17:22.749Z,148708.69
2023-03-12T08:19:48.585Z,148714.97
2023-03-12T08:22:14.613Z,148707.44
2023-03-12T08:24:40.642Z,148712.44
2023-03-12T08:27:06.549Z,148722.50
2023-03-12T08:29:32.771Z,148753.91
2023-03-12T08:32:05.011Z,148730.03
2023-03-12T08:34:32.928Z,148736.34
2023-03-12T08:36:59.238Z,148731.28
2023-03-12T08:39:25.278Z,148706.19
2023-03-12T08:41:54.539Z,148708.69
2023-03-12T08:44:24.058Z,148736.34
2023-03-12T08:46:50.909Z,148760.16
2023-03-12T08:49:17.727Z,148777.75
2023-03-12T08:51:43.747Z,148786.50
2023-03-12T08:54:09.559Z,148762.66
2023-03-12T08:56:41.559Z,148763.94
2023-03-12T08:59:08.802Z,148766.44
2023-03-12T09:01:34.531Z,148756.41
2023-03-12T09:04:01.857Z,148771.47
2023-03-12T09:06:27.810Z,148755.16
2023-03-12T09:08:53.701Z,148774.00
2023-03-12T09:11:19.706Z,148789.06
2023-03-12T09:16:31.386Z,148821.66
2023-03-12T09:18:57.177Z,148838.00
2023-03-12T09:21:23.176Z,148850.56
2023-03-12T09:23:49.003Z,148841.78
2023-03-12T09:26:14.957Z,148848.06
2023-03-12T09:28:41.804Z,148886.97
2023-03-12T09:31:07.665Z,148899.53
2023-03-12T09:33:35.143Z,148907.06
2023-03-12T09:36:01.665Z,148919.63
2023-03-12T09:38:28.104Z,148923.41
2023-03-12T09:40:55.662Z,148939.72
2023-03-12T09:43:41.090Z,148992.50
2023-03-12T09:46:23.739Z,149021.41
2023-03-12T09:48:53.099Z,149012.59
2023-03-12T09:51:39.888Z,149005.06
2023-03-12T09:54:14.093Z,149010.06
2023-03-12T09:56:40.476Z,149021.41
2023-03-12T09:59:11.612Z,149064.09
2023-03-12T10:01:48.013Z,149059.09
2023-03-12T10:04:52.231Z,149067.88
2023-03-12T10:07:22.226Z,149069.13
2023-03-12T10:10:12.104Z,149037.75
2023-03-12T10:12:48.783Z,149046.50
2023-03-12T10:15:14.963Z,149046.50
2023-03-12T10:17:59.743Z,149057.84
2023-03-12T10:20:40.968Z,149079.19
2023-03-12T10:23:28.352Z,149086.72
2023-03-12T10:25:59.955Z,149119.41
2023-03-12T10:28:35.361Z,149142.00
2023-03-12T10:31:06.573Z,149114.38
2023-03-12T10:33:43.936Z,149164.66
2023-03-12T10:36:20.055Z,149158.34
2023-03-12T10:38:48.665Z,149173.44
2023-03-12T10:41:23.252Z,149196.06
2023-03-12T10:43:49.171Z,149225.00
2023-03-12T10:46:34.644Z,149277.81
2023-03-12T10:49:27.377Z,149235.06
2023-03-12T10:52:02.207Z,149267.72
2023-03-12T10:54:33.740Z,149241.34
2023-03-12T10:56:59.538Z,149252.69
2023-03-12T10:59:29.243Z,149263.97
2023-03-12T11:01:57.229Z,149299.16
2023-03-12T11:04:32.507Z,149314.28
2023-03-12T11:07:23.214Z,149314.28
2023-03-12T11:10:07.759Z,149333.13
2023-03-12T11:12:36.120Z,149359.56
2023-03-12T11:15:21.206Z,149357.00
2023-03-12T11:17:47.483Z,149394.75
2023-03-12T11:20:28.239Z,149402.31
2023-03-12T11:22:54.245Z,149407.34
2023-03-12T11:25:26.802Z,149422.44
2023-03-12T11:28:00.027Z,149451.41
2023-03-12T11:30:35.824Z,149446.34
2023-03-12T11:33:03.168Z,149484.06
2023-03-12T11:35:43.249Z,149442.56
2023-03-12T11:38:37.725Z,149458.94
2023-03-12T11:41:12.894Z,149480.31
2023-03-12T11:43:56.538Z,149487.88
2023-03-12T11:46:29.025Z,149492.91
2023-03-12T11:49:19.464Z,149497.94
2023-03-12T11:51:59.630Z,149506.75
2023-03-12T11:54:25.343Z,149533.16
2023-03-12T11:56:56.155Z,149514.28
2023-03-12T11:59:54.073Z,149534.41
2023-03-12T12:02:28.861Z,149559.63
2023-03-12T12:05:16.552Z,149562.13
2023-03-12T12:08:17.994Z,149607.41
2023-03-12T12:11:06.481Z,149588.53
2023-03-12T12:13:44.320Z,149609.97
2023-03-12T12:16:28.993Z,149627.59
2023-03-12T12:19:06.417Z,149669.13
2023-03-12T12:21:44.140Z,149674.16
2023-03-12T12:24:29.913Z,149677.94
2023-03-12T12:27:25.064Z,149686.75
2023-03-12T12:30:13.568Z,149698.06
2023-03-12T12:32:45.534Z,149706.91
2023-03-12T12:35:32.045Z,149694.28
2023-03-12T12:38:06.314Z,149680.44
2023-03-12T12:40:40.170Z,149711.94
2023-03-12T12:43:05.923Z,149733.31
2023-03-12T12:45:32.101Z,149732.06
2023-03-12T12:48:33.092Z,149743.41
2023-03-12T12:51:00.471Z,149747.19
2023-03-12T12:53:31.362Z,149773.66
2023-03-12T12:56:21.638Z,149801.34
2023-03-12T12:59:02.715Z,149820.22
2023-03-12T13:01:30.990Z,149821.50
2023-03-12T13:04:12.751Z,149820.22
2023-03-12T13:06:57.170Z,149824.00
2023-03-12T13:09:36.533Z,149850.47
2023-03-12T13:12:24.267Z,149875.66
2023-03-12T13:14:51.887Z,149873.16
2023-03-12T13:17:56.113Z,149855.50
2023-03-12T13:20:31.283Z,149884.50
2023-03-12T13:23:15.877Z,149894.56
2023-03-12T13:26:21.877Z,149903.41
2023-03-12T13:29:06.009Z,149908.44
2023-03-12T13:31:37.318Z,149928.59
2023-03-12T13:34:28.329Z,149921.03
2023-03-12T13:37:00.792Z,149917.28
2023-03-12T13:39:35.310Z,149946.22
2023-03-12T13:42:24.110Z,149972.72
2023-03-12T13:44:51.635Z,149973.97
2023-03-12T13:47:30.237Z,149985.28
2023-03-12T13:50:00.915Z,150010.53
2023-03-12T13:52:31.033Z,150018.06
2023-03-12T13:55:24.263Z,150013.03
2023-03-12T13:57:54.505Z,150031.94
2023-03-12T14:00:26.045Z,150030.69
2023-03-12T14:02:57.596Z,150029.44
2023-03-12T14:05:24.244Z,150049.59
2023-03-12T14:08:21.468Z,150040.78
2023-03-12T14:10:52.349Z,150060.94
2023-03-12T14:13:25.490Z,150059.69
2023-03-12T14:16:39.004Z,150063.47
2023-03-12T14:19:06.135Z,150058.44
2023-03-12T14:21:40.054Z,150044.56
2023-03-12T14:24:12.578Z,150048.34
2023-03-12T14:26:39.357Z,150062.22
2023-03-12T14:29:35.304Z,150126.47
2023-03-12T14:32:05.333Z,150120.19
2023-03-12T14:34:39.711Z,150111.41
2023-03-12T14:37:19.470Z,150155.50
2023-03-12T14:39:50.981Z,150188.31
2023-03-12T14:42:25.122Z,150190.81
2023-03-12T14:45:13.463Z,150195.84
2023-03-12T14:47:41.638Z,150243.78
2023-03-12T14:50:20.601Z,150251.34
2023-03-12T14:52:46.672Z,150263.97
2023-03-12T14:55:17.504Z,150287.97
2023-03-12T14:57:44.652Z,150279.13
2023-03-12T15:00:22.907Z,150313.22
2023-03-12T15:02:50.739Z,150314.50
2023-03-12T15:05:18.389Z,150330.91
2023-03-12T15:07:46.651Z,150293.06
2023-03-12T15:10:25.563Z,150314.50
2023-03-12T15:12:54.203Z,150317.00
2023-03-12T15:15:43.717Z,150315.75
2023-03-12T15:18:22.617Z,150335.94
2023-03-12T15:20:49.243Z,150319.53
2023-03-12T15:23:16.906Z,150320.78
2023-03-12T15:25:44.617Z,150328.38
2023-03-12T15:28:10.658Z,150348.56
2023-03-12T15:30:39.751Z,150319.53
2023-03-12T15:33:14.987Z,150340.97
2023-03-12T15:36:01.239Z,150353.59
2023-03-12T15:38:27.644Z,150327.13
2023-03-12T15:41:00.652Z,150353.59
2023-03-12T15:43:27.137Z,150349.81
2023-03-12T15:46:02.723Z,150356.09
2023-03-12T15:48:39.339Z,150377.56
2023-03-12T15:51:26.974Z,150359.88
2023-03-12T15:54:02.172Z,150353.59
2023-03-12T15:56:31.369Z,150347.31
2023-03-12T15:59:28.565Z,150381.38
2023-03-12T16:01:56.029Z,150376.28
2023-03-12T16:04:24.173Z,150377.56
2023-03-12T16:06:51.362Z,150367.50
2023-03-12T16:09:21.195Z,150356.09
2023-03-12T16:11:51.954Z,150353.59
2023-03-12T16:14:32.791Z,150361.16
2023-03-12T16:17:02.147Z,150346.03
2023-03-12T16:19:33.020Z,150357.38
2023-03-12T16:21:59.839Z,150362.41
2023-03-12T16:24:25.803Z,150361.16
2023-03-12T16:26:56.093Z,150376.28
2023-03-12T16:29:30.754Z,150372.53
2023-03-12T16:31:57.293Z,150371.25
2023-03-12T16:34:23.529Z,150388.94
2023-03-12T16:36:49.795Z,150393.97
2023-03-12T16:39:18.414Z,150391.44
2023-03-12T16:41:44.870Z,150415.41
2023-03-12T16:44:16.793Z,150396.47
2023-03-12T16:46:44.425Z,150395.22
2023-03-12T16:49:15.590Z,150399.03
2023-03-12T16:51:41.563Z,150391.44
2023-03-12T16:54:11.635Z,150368.75
2023-03-12T16:56:42.461Z,150388.94
2023-03-12T16:59:19.090Z,150377.56
2023-03-12T17:01:45.071Z,150376.28
2023-03-12T17:04:11.496Z,150354.84
2023-03-12T17:06:39.789Z,150371.25
2023-03-12T17:09:07.772Z,150357.38
2023-03-12T17:11:37.192Z,150375.03
2023-03-12T17:14:17.410Z,150370.00
2023-03-12T17:16:43.574Z,150352.34
2023-03-12T17:19:09.544Z,150348.56
2023-03-12T17:21:36.715Z,150361.16
2023-03-12T17:24:02.914Z,150370.00
2023-03-12T17:26:28.710Z,150377.56
2023-03-12T17:28:54.770Z,150347.31
2023-03-12T17:31:20.844Z,150347.31
2023-03-12T17:33:46.811Z,150343.47
2023-03-12T17:36:12.740Z,150357.38
2023-03-12T17:38:38.724Z,150344.78
2023-03-12T17:41:09.448Z,150362.41
2023-03-12T17:43:37.893Z,150383.91
2023-03-12T17:46:05.957Z,150343.47
2023-03-12T17:48:32.179Z,150347.31
2023-03-12T17:50:58.279Z,150334.66
2023-03-12T17:53:24.675Z,150320.78
2023-03-12T17:55:50.608Z,150318.25
2023-03-12T17:58:16.408Z,150304.38
2023-03-12T18:00:42.343Z,150315.75
2023-03-12T18:03:08.326Z,150317.00
2023-03-12T18:05:40.739Z,150311.97
2023-03-12T18:08:07.063Z,150323.28
2023-03-12T18:10:33.180Z,150320.78
2023-03-12T18:13:00.740Z,150310.72
2023-03-12T18:15:26.946Z,150319.53
2023-03-12T18:17:55.941Z,150318.25
2023-03-12T18:20:35.876Z,150333.41
2023-03-12T18:23:03.553Z,150323.28
2023-03-12T18:25:29.670Z,150343.47
2023-03-12T18:27:56.729Z,150330.91
2023-03-12T18:30:22.775Z,150317.00
2023-03-12T18:32:48.647Z,150333.41
2023-03-12T18:35:14.688Z,150337.19
2023-03-12T18:37:41.014Z,150354.84
2023-03-12T18:40:07.709Z,150328.38
2023-03-12T18:42:33.621Z,150330.91
2023-03-12T18:44:59.545Z,150327.13
2023-03-12T18:47:25.614Z,150343.47
2023-03-12T18:49:54.475Z,150325.81
2023-03-12T18:52:20.624Z,150338.44
2023-03-12T18:54:46.599Z,150332.16
2023-03-12T18:57:12.502Z,150334.66
2023-03-12T18:59:38.444Z,150314.50
2023-03-12T19:02:04.472Z,150332.16
2023-03-12T19:04:30.633Z,150323.28
2023-03-12T19:06:58.599Z,150339.69
2023-03-12T19:09:24.572Z,150340.97
2023-03-12T19:11:50.424Z,150330.91
2023-03-12T19:14:16.390Z,150333.41
2023-03-12T19:16:42.543Z,150308.16
2023-03-12T19:19:08.713Z,150320.78
2023-03-12T19:21:34.668Z,150318.25
2023-03-12T19:24:00.594Z,150335.94
2023-03-12T19:26:26.970Z,150330.91
2023-03-12T19:28:52.853Z,150333.41
2023-03-12T19:31:18.873Z,150330.91
2023-03-12T19:33:45.136Z,150349.81
2023-03-12T19:36:11.202Z,150328.38
2023-03-12T19:38:37.295Z,150324.56
2023-03-12T19:41:06.059Z,150335.94
2023-03-12T19:43:31.882Z,150364.97
2023-03-12T19:45:57.985Z,150370.00
2023-03-12T19:48:24.565Z,150359.88
2023-03-12T19:50:51.494Z,150338.44
2023-03-12T19:53:19.026Z,150358.63
2023-03-12T19:55:48.974Z,150342.22
2023-03-12T19:58:15.878Z,150343.47
2023-03-12T20:00:42.538Z,150386.41
2023-03-12T20:03:09.080Z,150367.50
2023-03-12T20:05:35.022Z,150338.44
2023-03-12T20:08:01.046Z,150347.31
2023-03-12T20:10:28.641Z,150362.41
2023-03-12T20:12:54.603Z,150348.56
2023-03-12T20:15:20.541Z,150346.03
2023-03-12T20:17:46.473Z,150357.38
2023-03-12T20:20:12.719Z,150340.97
2023-03-12T20:22:38.660Z,150348.56
2023-03-12T20:25:05.937Z,150353.59
2023-03-12T20:27:33.718Z,150377.56
2023-03-12T20:29:59.581Z,150354.84
2023-03-12T20:32:25.737Z,150386.41
2023-03-12T20:34:51.754Z,150386.41
2023-03-12T20:37:18.646Z,150362.41
2023-03-12T20:39:44.705Z,150377.56
2023-03-12T20:42:10.578Z,150359.88
2023-03-12T20:44:36.590Z,150359.88
2023-03-12T20:47:02.632Z,150359.88
2023-03-12T20:49:28.558Z,150391.44
2023-03-12T20:51:56.329Z,150361.16
2023-03-12T20:54:22.373Z,150380.06
2023-03-12T20:56:48.430Z,150376.28
2023-03-12T20:59:14.531Z,150337.19
2023-03-12T21:01:40.568Z,150357.38
2023-03-12T21:04:06.553Z,150343.47
2023-03-12T21:06:32.513Z,150344.78
2023-03-12T21:08:58.562Z,150363.72
2023-03-12T21:11:26.121Z,150364.97
2023-03-12T21:13:52.555Z,150353.59
2023-03-12T21:16:18.818Z,150338.44
2023-03-12T21:18:44.842Z,150333.41
2023-03-12T21:21:10.996Z,150333.41
2023-03-12T21:23:38.102Z,150323.28
2023-03-12T21:26:08.938Z,150359.88
2023-03-12T21:28:37.407Z,150351.06
2023-03-12T21:31:12.086Z,150343.47
2023-03-12T21:33:38.207Z,150333.41
2023-03-12T21:36:05.598Z,150311.97
2023-03-12T21:38:31.468Z,150303.13
2023-03-12T21:40:58.560Z,150328.38
2023-03-12T21:43:27.987Z,150327.13
2023-03-12T21:45:53.930Z,150322.03
2023-03-12T21:48:19.827Z,150315.75
2023-03-12T21:50:45.730Z,150348.56
2023-03-12T21:53:23.139Z,150325.81
2023-03-12T21:56:00.808Z,150313.22
2023-03-12T21:58:27.667Z,150324.56
2023-03-12T22:01:11.823Z,150342.22
2023-03-12T22:03:41.299Z,150328.38
2023-03-12T22:06:07.681Z,150319.53
2023-03-12T22:08:34.205Z,150363.72
2023-03-12T22:11:00.102Z,150339.69
2023-03-12T22:13:26.256Z,150335.94
2023-03-12T22:15:54.552Z,150328.38
2023-03-12T22:18:21.529Z,150343.47
2023-03-12T22:20:59.957Z,150358.63
2023-03-12T22:23:27.016Z,150332.16
2023-03-12T22:25:53.265Z,150327.13
2023-03-12T22:28:19.563Z,150329.63
2023-03-12T22:30:46.149Z,150318.25
2023-03-12T22:33:12.046Z,150317.00
2023-03-12T22:35:45.378Z,150309.47
2023-03-12T22:38:11.664Z,150319.53
2023-03-12T22:40:37.903Z,150311.97
2023-03-12T22:43:03.822Z,150304.38
2023-03-12T22:45:29.625Z,150299.34
2023-03-12T22:47:55.430Z,150310.72
2023-03-12T22:50:22.606Z,150335.94
2023-03-12T22:52:48.716Z,150340.97
2023-03-12T22:55:14.723Z,150337.19
2023-03-12T22:57:40.534Z,150325.81
2023-03-12T23:00:12.192Z,150353.59
2023-03-12T23:02:39.438Z,150361.16
2023-03-12T23:05:07.107Z,150370.00
2023-03-12T23:07:33.565Z,150358.63
2023-03-12T23:09:59.576Z,150351.06
2023-03-12T23:12:25.493Z,150346.03
2023-03-12T23:14:52.277Z,150339.69
2023-03-12T23:17:18.494Z,150344.78
2023-03-12T23:19:44.432Z,150348.56
2023-03-12T23:22:10.505Z,150361.16
2023-03-12T23:24:36.588Z,150347.31
2023-03-12T23:27:02.980Z,150340.97
2023-03-12T23:29:30.272Z,150358.63
2023-03-12T23:31:57.838Z,150340.97
2023-03-12T23:34:23.698Z,150359.88
2023-03-12T23:36:49.643Z,150343.47
2023-03-12T23:39:15.579Z,150347.31
2023-03-12T23:41:41.474Z,150371.25
2023-03-12T23:44:07.359Z,150368.75
2023-03-12T23:46:33.271Z,150362.41
2023-03-12T23:48:59.174Z,150386.41
2023-03-12T23:51:30.431Z,150371.25
2023-03-12T23:54:04.407Z,150390.19
2023-03-12T23:56:32.855Z,150378.81
2023-03-12T23:58:58.757Z,150367.50
